Time;durP1;ratioP1;P1;durP2;ratioP2;P2;SDS_P1;SDS_P2;PMS_P1;PMS_P2;Temp;Humidity;BMP_temperature;BMP_pressure;BME280_temperature;BME280_humidity;BME280_pressure;Samples;Min_cycle;Max_cycle;Signal;HPM_P1;HPM_P2
2023/09/26 00:02:22;;;;;;;8.00;4.37;;;9.80;99.90;;;;;;4956655;28;20452;-61
2023/09/26 00:04:47;;;;;;;4.23;3.50;;;9.70;99.90;;;;;;4965276;28;20938;-62
2023/09/26 00:07:13;;;;;;;5.13;3.70;;;9.70;99.90;;;;;;4959830;28;20194;-61
2023/09/26 00:09:39;;;;;;;4.10;3.43;;;9.70;99.90;;;;;;4959143;28;20193;-60
2023/09/26 00:12:05;;;;;;;4.00;3.50;;;9.70;99.90;;;;;;4955168;28;20687;-61
2023/09/26 00:14:30;;;;;;;4.60;3.60;;;9.70;99.90;;;;;;4959126;28;20441;-61
2023/09/26 00:16:56;;;;;;;8.47;4.00;;;9.70;99.90;;;;;;4959530;28;21152;-61
2023/09/26 00:19:21;;;;;;;4.60;3.53;;;9.60;99.90;;;;;;4959401;28;20181;-61
2023/09/26 00:21:47;;;;;;;4.43;3.27;;;9.60;99.90;;;;;;4963694;28;20668;-60
2023/09/26 00:24:13;;;;;;;3.57;3.27;;;9.60;99.90;;;;;;4964030;28;20192;-60
2023/09/26 00:26:39;;;;;;;4.20;3.73;;;9.50;99.90;;;;;;4963336;28;20267;-60
2023/09/26 00:29:05;;;;;;;6.40;3.87;;;9.50;99.90;;;;;;4961751;28;20433;-60
2023/09/26 00:31:30;;;;;;;5.97;3.97;;;9.40;99.90;;;;;;4963238;28;20565;-61
2023/09/26 00:33:56;;;;;;;8.80;4.40;;;9.40;99.90;;;;;;4963557;28;20424;-61
2023/09/26 00:36:22;;;;;;;6.43;4.30;;;9.30;99.90;;;;;;4963763;28;20328;-61
2023/09/26 00:38:47;;;;;;;7.53;4.90;;;9.30;99.90;;;;;;4963614;28;20622;-60
2023/09/26 00:41:13;;;;;;;9.33;5.13;;;9.30;99.90;;;;;;4961774;28;20233;-61
2023/09/26 00:43:38;;;;;;;6.97;4.23;;;9.20;99.90;;;;;;4963945;28;20190;-60
2023/09/26 00:46:05;;;;;;;5.90;3.97;;;9.20;99.90;;;;;;4963895;28;20272;-61
2023/09/26 00:48:32;;;;;;;7.50;4.40;;;9.20;99.90;;;;;;4964221;28;20228;-61
2023/09/26 00:50:58;;;;;;;5.70;4.20;;;9.30;99.90;;;;;;4961785;28;20496;-61
2023/09/26 00:53:26;;;;;;;5.60;4.10;;;9.30;99.90;;;;;;4961907;28;20500;-61
2023/09/26 00:55:55;;;;;;;8.07;4.20;;;9.30;99.90;;;;;;4963635;28;20469;-60
2023/09/26 00:58:22;;;;;;;5.67;5.07;;;9.30;99.90;;;;;;4962057;28;20524;-60
2023/09/26 01:00:55;;;;;;;8.80;4.23;;;9.30;99.90;;;;;;4963014;28;20421;-59
2023/09/26 01:03:21;;;;;;;6.30;4.20;;;9.30;99.90;;;;;;4960909;28;20444;-61
2023/09/26 01:05:46;;;;;;;16.83;4.10;;;9.30;99.90;;;;;;4962938;28;21236;-61
2023/09/26 01:08:12;;;;;;;5.07;4.00;;;9.30;99.90;;;;;;4962678;28;21010;-61
2023/09/26 01:10:38;;;;;;;4.33;3.87;;;9.30;99.90;;;;;;4962480;28;20190;-61
2023/09/26 01:13:04;;;;;;;4.57;4.13;;;9.30;99.90;;;;;;4961407;28;20873;-61
2023/09/26 01:15:39;;;;;;;5.53;4.30;;;9.30;99.90;;;;;;4965811;28;20465;-61
2023/09/26 01:18:12;;;;;;;6.53;4.60;;;9.30;99.90;;;;;;4964448;28;20179;-61
2023/09/26 01:20:39;;;;;;;4.97;4.33;;;9.30;99.90;;;;;;4963410;28;20459;-61
2023/09/26 01:23:06;;;;;;;6.10;4.47;;;9.30;99.90;;;;;;4966059;28;21023;-62
2023/09/26 01:25:35;;;;;;;4.80;4.10;;;9.30;99.90;;;;;;4963938;28;20452;-61
2023/09/26 01:28:06;;;;;;;17.43;5.30;;;9.30;99.90;;;;;;4964302;28;20799;-61
2023/09/26 01:30:37;;;;;;;5.90;4.50;;;9.20;99.90;;;;;;4964888;28;20436;-61
2023/09/26 01:33:04;;;;;;;14.13;4.53;;;9.20;99.90;;;;;;4959715;28;20458;-61
2023/09/26 01:35:29;;;;;;;9.33;4.03;;;9.10;99.90;;;;;;4962665;28;21000;-61
2023/09/26 01:37:56;;;;;;;4.37;3.77;;;9.00;99.90;;;;;;4963486;28;20433;-62
2023/09/26 01:40:21;;;;;;;12.50;4.23;;;9.00;99.90;;;;;;4965770;28;20952;-60
2023/09/26 01:42:47;;;;;;;5.50;4.00;;;8.90;99.90;;;;;;4967235;28;20429;-62
2023/09/26 01:45:12;;;;;;;5.23;3.97;;;8.90;99.90;;;;;;4971554;28;20228;-60
2023/09/26 01:47:43;;;;;;;5.67;3.83;;;8.90;99.90;;;;;;4970242;28;20277;-60
2023/09/26 01:50:09;;;;;;;9.97;4.30;;;8.90;99.90;;;;;;4962447;28;20234;-61
2023/09/26 01:52:35;;;;;;;21.40;4.37;;;8.90;99.90;;;;;;4966996;28;20437;-61
2023/09/26 01:55:14;;;;;;;15.87;4.63;;;8.90;99.90;;;;;;4968006;28;20212;-61
2023/09/26 01:57:39;;;;;;;19.47;4.30;;;8.80;99.90;;;;;;4961855;28;20591;-61
2023/09/26 02:00:12;;;;;;;11.47;3.90;;;8.70;99.90;;;;;;4963532;28;20433;-61
2023/09/26 02:02:39;;;;;;;6.37;3.80;;;8.70;99.90;;;;;;4967866;28;20189;-62
2023/09/26 02:05:08;;;;;;;10.87;4.23;;;8.60;99.90;;;;;;4967645;28;20453;-61
2023/09/26 02:07:34;;;;;;;16.23;4.63;;;8.70;99.90;;;;;;4964571;28;20437;-62
2023/09/26 02:10:00;;;;;;;13.33;4.53;;;8.60;99.90;;;;;;4964192;28;20504;-61
2023/09/26 02:12:26;;;;;;;31.10;4.80;;;8.60;99.90;;;;;;4968072;28;20433;-61
2023/09/26 02:14:51;;;;;;;22.63;5.03;;;8.60;99.90;;;;;;4971015;28;20620;-60
2023/09/26 02:17:17;;;;;;;19.00;4.87;;;8.50;99.90;;;;;;4967810;28;20181;-61
2023/09/26 02:19:42;;;;;;;35.50;5.23;;;8.50;99.90;;;;;;4966887;28;20202;-60
2023/09/26 02:22:08;;;;;;;65.80;5.97;;;8.50;99.90;;;;;;4968118;28;20192;-61
2023/09/26 02:24:34;;;;;;;24.37;4.37;;;8.40;99.90;;;;;;4963677;28;20181;-61
2023/09/26 02:26:59;;;;;;;10.03;3.73;;;8.40;99.90;;;;;;4959104;28;20297;-61
2023/09/26 02:29:28;;;;;;;11.90;4.27;;;8.30;99.90;;;;;;4963501;28;20242;-61
2023/09/26 02:31:53;;;;;;;20.90;4.93;;;8.30;99.90;;;;;;4970635;28;20720;-61
2023/09/26 02:34:19;;;;;;;24.03;4.40;;;8.40;99.90;;;;;;4967247;28;20429;-61
2023/09/26 02:36:44;;;;;;;25.73;5.60;;;8.40;99.90;;;;;;4969596;28;20198;-61
2023/09/26 02:39:10;;;;;;;16.70;4.87;;;8.40;99.90;;;;;;4964291;28;20248;-60
2023/09/26 02:41:36;;;;;;;15.20;5.20;;;8.40;99.90;;;;;;4965806;28;20707;-61
2023/09/26 02:44:03;;;;;;;14.83;4.60;;;8.30;99.90;;;;;;4968526;28;20170;-61
2023/09/26 02:46:29;;;;;;;13.00;4.30;;;8.30;99.90;;;;;;4962389;28;20288;-60
2023/09/26 02:48:54;;;;;;;10.13;3.83;;;8.30;99.90;;;;;;4963905;28;20512;-61
2023/09/26 02:51:20;;;;;;;34.97;4.50;;;8.30;99.90;;;;;;4968226;28;20735;-60
2023/09/26 02:53:46;;;;;;;7.00;3.43;;;8.20;99.90;;;;;;4968365;28;20182;-59
2023/09/26 02:56:11;;;;;;;6.73;3.60;;;8.20;99.90;;;;;;4962717;28;20206;-61
2023/09/26 02:58:37;;;;;;;45.00;4.30;;;8.20;99.90;;;;;;4969476;28;20182;-61
2023/09/26 03:01:04;;;;;;;18.90;4.23;;;8.20;99.90;;;;;;4968997;28;20296;-61
2023/09/26 03:03:30;;;;;;;17.43;4.50;;;8.20;99.90;;;;;;4962485;28;20672;-61
2023/09/26 03:05:55;;;;;;;17.07;3.83;;;8.20;99.90;;;;;;4967064;28;20452;-62
2023/09/26 03:08:21;;;;;;;20.23;4.53;;;8.10;99.90;;;;;;4969296;28;20264;-61
2023/09/26 03:10:47;;;;;;;13.40;4.00;;;8.10;99.90;;;;;;4963698;28;20274;-61
2023/09/26 03:13:13;;;;;;;9.67;3.80;;;8.10;99.90;;;;;;4964579;28;20186;-61
2023/09/26 03:15:38;;;;;;;25.23;5.07;;;8.10;99.90;;;;;;4962160;28;20261;-61
2023/09/26 03:18:05;;;;;;;11.00;4.30;;;8.00;99.90;;;;;;4969098;28;20225;-61
2023/09/26 03:20:31;;;;;;;11.83;4.47;;;8.00;99.90;;;;;;4963062;28;20544;-60
2023/09/26 03:22:57;;;;;;;30.93;5.10;;;8.00;99.90;;;;;;4961971;28;20422;-61
2023/09/26 03:25:23;;;;;;;26.07;5.03;;;8.00;99.90;;;;;;4965901;28;20453;-61
2023/09/26 03:27:50;;;;;;;40.53;5.27;;;8.00;99.90;;;;;;4965219;28;20550;-61
2023/09/26 03:30:16;;;;;;;23.00;4.90;;;8.00;99.90;;;;;;4964667;28;20190;-61
2023/09/26 03:32:42;;;;;;;20.03;4.40;;;7.90;99.90;;;;;;4967951;28;21007;-61
2023/09/26 03:35:09;;;;;;;11.27;4.80;;;7.90;99.90;;;;;;4963332;28;20476;-61
2023/09/26 03:37:36;;;;;;;16.07;4.97;;;7.90;99.90;;;;;;4967055;28;20178;-62
2023/09/26 03:40:03;;;;;;;29.70;5.80;;;7.90;99.90;;;;;;4964899;28;20432;-60
2023/09/26 03:42:29;;;;;;;27.00;4.77;;;7.90;99.90;;;;;;4967435;28;20780;-62
2023/09/26 03:44:54;;;;;;;29.47;4.77;;;7.90;99.90;;;;;;4959653;28;20978;-61
2023/09/26 03:47:20;;;;;;;5.43;4.53;;;7.80;99.90;;;;;;4967257;28;20637;-61
2023/09/26 03:49:45;;;;;;;15.60;4.23;;;7.90;99.90;;;;;;4966944;28;20189;-61
2023/09/26 03:52:11;;;;;;;12.70;5.03;;;7.90;99.90;;;;;;4964581;28;20190;-61
2023/09/26 03:54:37;;;;;;;21.77;5.70;;;7.90;99.90;;;;;;4965303;28;20193;-61
2023/09/26 03:57:04;;;;;;;16.33;5.60;;;7.90;99.90;;;;;;4962173;28;20205;-56
2023/09/26 03:59:30;;;;;;;10.33;4.60;;;7.90;99.90;;;;;;4956415;28;20209;-58
2023/09/26 04:01:55;;;;;;;11.13;4.90;;;7.90;99.90;;;;;;4948410;28;20532;-57
2023/09/26 04:04:21;;;;;;;6.83;5.90;;;7.90;99.90;;;;;;4962876;28;20217;-58
2023/09/26 04:06:47;;;;;;;10.87;7.90;;;8.00;99.90;;;;;;4958263;28;20739;-56
2023/09/26 04:09:12;;;;;;;6.60;5.90;;;8.10;99.90;;;;;;4963786;28;20182;-56
2023/09/26 04:11:38;;;;;;;21.10;5.03;;;8.10;99.90;;;;;;4961622;28;20182;-61
2023/09/26 04:14:03;;;;;;;8.50;3.60;;;8.10;99.90;;;;;;4958529;28;20182;-61
2023/09/26 04:16:29;;;;;;;18.93;4.10;;;8.10;99.90;;;;;;4959529;28;20218;-60
2023/09/26 04:18:54;;;;;;;15.23;4.50;;;8.10;99.90;;;;;;4960226;28;20220;-59
2023/09/26 04:21:20;;;;;;;25.13;6.20;;;8.10;99.90;;;;;;4959237;28;20205;-59
2023/09/26 04:23:46;;;;;;;19.77;5.50;;;8.10;99.90;;;;;;4965610;28;20599;-59
2023/09/26 04:26:15;;;;;;;25.93;8.60;;;8.20;99.90;;;;;;4958605;28;20217;-59
2023/09/26 04:28:42;;;;;;;132.43;13.40;;;8.20;99.90;;;;;;4957909;28;20186;-59
2023/09/26 04:31:18;;;;;;;46.43;10.30;;;8.20;99.90;;;;;;4957406;28;20438;-58
2023/09/26 04:33:45;;;;;;;40.63;9.80;;;8.20;99.90;;;;;;4962129;28;20495;-59
2023/09/26 04:36:11;;;;;;;34.43;10.37;;;8.20;99.90;;;;;;4961329;28;20519;-61
2023/09/26 04:38:37;;;;;;;32.83;10.13;;;8.20;99.90;;;;;;4945498;28;20445;-61
2023/09/26 04:41:04;;;;;;;30.10;10.47;;;8.10;99.90;;;;;;4950658;28;20175;-62
2023/09/26 04:43:30;;;;;;;18.10;7.77;;;8.20;99.90;;;;;;4961862;28;21594;-61
2023/09/26 04:45:56;;;;;;;16.13;7.10;;;8.20;99.90;;;;;;4964609;28;20460;-61
2023/09/26 04:48:22;;;;;;;30.37;7.10;;;8.20;99.90;;;;;;4963572;28;20444;-61
2023/09/26 04:50:48;;;;;;;20.70;5.73;;;8.20;99.90;;;;;;4961484;28;20189;-61
2023/09/26 04:53:14;;;;;;;11.10;5.83;;;8.10;99.90;;;;;;4967085;28;20182;-57
2023/09/26 04:55:41;;;;;;;10.10;5.13;;;8.10;99.90;;;;;;4966456;28;20531;-57
2023/09/26 04:58:06;;;;;;;30.07;8.93;;;8.10;99.90;;;;;;4962815;28;20535;-61
2023/09/26 05:00:32;;;;;;;18.27;7.33;;;8.10;99.90;;;;;;4962613;28;20425;-61
2023/09/26 05:02:58;;;;;;;17.13;6.50;;;8.10;99.90;;;;;;4961473;28;20260;-61
2023/09/26 05:05:24;;;;;;;15.43;7.10;;;8.10;99.90;;;;;;4956071;28;20712;-61
2023/09/26 05:07:50;;;;;;;18.57;6.53;;;8.10;99.90;;;;;;4971531;28;20182;-61
2023/09/26 05:10:16;;;;;;;19.60;5.70;;;8.20;99.90;;;;;;4964996;28;20560;-61
2023/09/26 05:12:42;;;;;;;11.90;5.60;;;8.20;99.90;;;;;;4967208;28;20210;-61
2023/09/26 05:15:13;;;;;;;15.40;6.10;;;8.20;99.90;;;;;;4969809;28;20543;-61
2023/09/26 05:17:45;;;;;;;16.93;5.80;;;8.10;99.90;;;;;;4963256;28;20212;-61
2023/09/26 05:20:11;;;;;;;21.10;6.70;;;8.10;99.90;;;;;;4968411;28;20424;-61
2023/09/26 05:22:41;;;;;;;30.70;8.00;;;8.10;99.90;;;;;;4971226;28;20440;-61
2023/09/26 05:25:07;;;;;;;50.37;12.27;;;8.10;99.90;;;;;;4969823;28;20445;-61
2023/09/26 05:27:33;;;;;;;62.30;14.63;;;8.10;99.90;;;;;;4958698;28;20433;-61
2023/09/26 05:29:59;;;;;;;70.77;16.57;;;8.10;99.90;;;;;;4965023;28;20436;-61
2023/09/26 05:32:25;;;;;;;86.10;16.57;;;8.10;99.90;;;;;;4965049;28;20456;-62
2023/09/26 05:34:50;;;;;;;197.37;18.03;;;8.10;99.90;;;;;;4967628;28;20644;-60
2023/09/26 05:37:16;;;;;;;44.13;11.47;;;8.10;99.90;;;;;;4963354;28;20181;-61
2023/09/26 05:39:42;;;;;;;34.17;11.20;;;8.00;99.90;;;;;;4971785;28;20174;-61
2023/09/26 05:42:10;;;;;;;83.43;11.33;;;8.00;99.90;;;;;;4965846;28;20174;-61
2023/09/26 05:44:36;;;;;;;39.70;14.27;;;8.00;99.90;;;;;;4967837;28;20429;-62
2023/09/26 05:47:01;;;;;;;51.97;10.67;;;8.00;99.90;;;;;;4965305;28;20507;-61
2023/09/26 05:49:27;;;;;;;31.27;8.37;;;8.00;99.90;;;;;;4962852;28;20429;-61
2023/09/26 05:51:52;;;;;;;22.83;7.40;;;8.00;99.90;;;;;;4966305;28;20213;-61
2023/09/26 05:54:18;;;;;;;14.57;7.87;;;8.00;99.90;;;;;;4966260;28;20189;-60
2023/09/26 05:56:44;;;;;;;28.17;9.07;;;8.00;99.90;;;;;;4963598;28;20595;-60
2023/09/26 05:59:10;;;;;;;20.87;9.20;;;8.10;99.90;;;;;;4962968;28;20170;-61
2023/09/26 06:01:35;;;;;;;15.90;8.10;;;8.10;99.90;;;;;;4961829;28;20439;-61
2023/09/26 06:04:01;;;;;;;15.37;8.77;;;8.10;99.90;;;;;;4957356;28;20178;-61
2023/09/26 06:06:27;;;;;;;19.30;7.27;;;8.20;99.90;;;;;;4969383;28;20711;-62
2023/09/26 06:08:52;;;;;;;15.60;6.67;;;8.20;99.90;;;;;;4965791;28;20262;-61
2023/09/26 06:11:18;;;;;;;13.17;6.27;;;8.10;99.90;;;;;;4961987;28;20186;-62
2023/09/26 06:13:44;;;;;;;6.57;4.80;;;8.20;99.90;;;;;;4967290;28;20335;-62
2023/09/26 06:16:10;;;;;;;30.00;5.50;;;8.10;99.90;;;;;;4963968;28;20209;-63
2023/09/26 06:18:36;;;;;;;27.40;4.90;;;8.10;99.90;;;;;;4965120;28;20600;-60
2023/09/26 06:21:06;;;;;;;7.77;4.47;;;8.10;99.90;;;;;;4965420;28;20524;-59
2023/09/26 06:23:32;;;;;;;12.27;4.70;;;8.10;99.90;;;;;;4961399;28;20178;-59
2023/09/26 06:25:59;;;;;;;4.93;4.23;;;8.10;99.90;;;;;;4965075;28;20603;-59
2023/09/26 06:28:25;;;;;;;11.77;4.67;;;8.10;99.90;;;;;;4963811;28;20178;-59
2023/09/26 06:30:51;;;;;;;6.13;4.40;;;8.10;99.90;;;;;;4968787;28;20429;-59
2023/09/26 06:33:16;;;;;;;11.20;5.23;;;8.10;99.90;;;;;;4965487;28;20453;-59
2023/09/26 06:35:42;;;;;;;20.73;7.57;;;8.20;99.90;;;;;;4961824;28;20209;-59
2023/09/26 06:38:08;;;;;;;29.47;10.07;;;8.20;99.90;;;;;;4966302;28;20683;-59
2023/09/26 06:40:33;;;;;;;23.13;8.47;;;8.20;99.90;;;;;;4960261;28;20169;-59
2023/09/26 06:43:00;;;;;;;30.80;10.07;;;8.20;99.90;;;;;;4961275;28;20179;-59
2023/09/26 06:45:28;;;;;;;21.83;8.60;;;8.30;99.90;;;;;;4962160;28;20194;-59
2023/09/26 06:47:53;;;;;;;26.50;9.87;;;8.30;99.90;;;;;;4962223;28;20434;-58
2023/09/26 06:50:19;;;;;;;30.47;11.90;;;8.30;99.90;;;;;;4962932;28;20439;-59
2023/09/26 06:52:45;;;;;;;65.87;14.20;;;8.40;99.90;;;;;;4964025;28;20651;-60
2023/09/26 06:55:11;;;;;;;36.40;15.77;;;8.40;99.90;;;;;;4961897;28;20477;-60
2023/09/26 06:57:37;;;;;;;48.20;16.07;;;8.40;99.90;;;;;;4957742;28;20177;-60
2023/09/26 07:00:12;;;;;;;42.83;15.20;;;8.50;99.90;;;;;;4977924;28;20189;-59
2023/09/26 07:02:40;;;;;;;45.17;14.07;;;8.50;99.90;;;;;;4966126;28;20431;-59
2023/09/26 07:05:07;;;;;;;35.33;14.57;;;8.50;99.90;;;;;;4964790;28;20459;-60
2023/09/26 07:07:34;;;;;;;29.83;12.13;;;8.60;99.90;;;;;;4965876;28;20924;-60
2023/09/26 07:10:00;;;;;;;34.97;12.40;;;8.60;99.90;;;;;;4961962;28;20951;-60
2023/09/26 07:12:26;;;;;;;41.80;13.83;;;8.70;99.90;;;;;;4963231;28;21049;-59
2023/09/26 07:14:57;;;;;;;46.13;15.30;;;8.60;99.90;;;;;;4961240;28;20458;-61
2023/09/26 07:17:23;;;;;;;41.50;15.10;;;8.70;99.90;;;;;;4965464;28;20520;-60
2023/09/26 07:19:49;;;;;;;37.83;15.33;;;8.70;99.90;;;;;;4960248;28;20471;-60
2023/09/26 07:22:15;;;;;;;50.87;17.30;;;8.70;99.90;;;;;;4962646;28;20433;-59
2023/09/26 07:24:41;;;;;;;52.67;18.47;;;8.80;99.90;;;;;;4962097;28;20941;-60
2023/09/26 07:27:07;;;;;;;50.50;16.57;;;8.90;99.90;;;;;;4962224;28;20192;-60
2023/09/26 07:29:33;;;;;;;39.60;14.10;;;8.90;99.90;;;;;;4959315;28;20189;-58
2023/09/26 07:31:59;;;;;;;49.53;15.67;;;9.00;99.90;;;;;;4956131;28;20438;-58
2023/09/26 07:34:25;;;;;;;55.20;15.60;;;9.10;99.90;;;;;;4963001;28;20181;-58
2023/09/26 07:36:51;;;;;;;35.60;14.10;;;9.10;99.90;;;;;;4956546;28;20851;-59
2023/09/26 07:39:17;;;;;;;90.63;21.30;;;9.10;99.90;;;;;;4961943;28;20252;-57
2023/09/26 07:41:43;;;;;;;38.73;14.60;;;9.10;99.90;;;;;;4961598;28;20453;-58
2023/09/26 07:44:09;;;;;;;22.73;11.87;;;9.10;99.90;;;;;;4955748;28;20275;-59
2023/09/26 07:46:34;;;;;;;33.03;14.70;;;9.10;99.90;;;;;;4961632;28;21016;-58
2023/09/26 07:49:00;;;;;;;33.77;15.07;;;9.20;99.90;;;;;;4969029;28;20641;-59
2023/09/26 07:51:26;;;;;;;32.53;13.73;;;9.30;99.90;;;;;;4970605;28;20197;-58
2023/09/26 07:53:51;;;;;;;23.03;11.70;;;9.40;99.90;;;;;;4969478;28;20535;-59
2023/09/26 07:56:18;;;;;;;20.27;10.93;;;9.50;99.90;;;;;;4962777;28;20299;-59
2023/09/26 07:58:43;;;;;;;15.87;9.50;;;9.60;99.90;;;;;;4964044;28;20268;-59
2023/09/26 08:01:09;;;;;;;18.77;10.67;;;9.70;99.90;;;;;;4968043;28;21047;-59
2023/09/26 08:03:38;;;;;;;25.80;13.63;;;9.80;99.90;;;;;;4965889;28;20317;-59
2023/09/26 08:06:05;;;;;;;30.00;13.00;;;9.90;99.90;;;;;;4962985;28;20205;-60
2023/09/26 08:08:32;;;;;;;22.70;11.43;;;10.00;99.90;;;;;;4966524;28;20812;-59
2023/09/26 08:11:09;;;;;;;22.93;12.37;;;10.10;99.90;;;;;;4965687;28;20527;-59
2023/09/26 08:13:35;;;;;;;17.50;11.90;;;10.20;99.90;;;;;;4968952;28;20413;-57
2023/09/26 08:16:01;;;;;;;19.13;12.67;;;10.30;99.90;;;;;;4965748;28;20465;-60
2023/09/26 08:18:27;;;;;;;22.40;12.07;;;10.50;99.90;;;;;;4968726;28;20421;-59
2023/09/26 08:20:55;;;;;;;25.23;12.23;;;10.60;99.90;;;;;;4966776;28;20429;-61
2023/09/26 08:23:21;;;;;;;28.13;15.80;;;10.70;99.90;;;;;;4967823;28;20186;-59
2023/09/26 08:25:47;;;;;;;31.53;15.93;;;10.90;99.90;;;;;;4964151;28;20990;-59
2023/09/26 08:28:13;;;;;;;27.53;16.13;;;11.00;99.90;;;;;;4962995;28;20445;-60
2023/09/26 08:30:38;;;;;;;23.60;15.07;;;11.10;99.90;;;;;;4963708;28;20178;-60
2023/09/26 08:33:04;;;;;;;37.43;16.37;;;11.30;99.90;;;;;;4963375;28;20626;-60
2023/09/26 08:35:32;;;;;;;39.03;16.50;;;11.40;99.90;;;;;;4955984;28;20638;-60
2023/09/26 08:37:58;;;;;;;37.43;17.37;;;11.60;99.90;;;;;;4963946;28;20192;-60
2023/09/26 08:40:28;;;;;;;33.17;15.33;;;11.70;99.90;;;;;;4960545;28;20952;-60
2023/09/26 08:42:58;;;;;;;32.87;17.60;;;11.80;99.90;;;;;;4967102;28;20178;-59
2023/09/26 08:45:26;;;;;;;36.50;18.57;;;12.00;99.90;;;;;;4967399;28;20821;-60
2023/09/26 08:47:54;;;;;;;36.07;19.37;;;12.20;99.90;;;;;;4967740;28;20987;-60
2023/09/26 08:50:24;;;;;;;35.13;18.13;;;12.30;99.90;;;;;;4970723;28;20439;-60
2023/09/26 08:52:50;;;;;;;32.13;18.67;;;12.50;99.90;;;;;;4972168;28;20684;-60
2023/09/26 08:55:15;;;;;;;28.83;16.77;;;12.70;99.90;;;;;;4964291;28;21214;-55
2023/09/26 08:57:42;;;;;;;32.43;16.57;;;12.80;99.90;;;;;;4970577;28;20671;-61
2023/09/26 09:00:09;;;;;;;26.40;16.73;;;13.00;99.90;;;;;;4966161;28;20171;-59
2023/09/26 09:02:34;;;;;;;31.60;16.47;;;13.20;99.90;;;;;;4964146;28;20461;-59
2023/09/26 09:05:00;;;;;;;23.33;15.87;;;13.40;99.90;;;;;;4961391;28;20439;-59
2023/09/26 09:07:26;;;;;;;26.50;17.27;;;13.60;99.90;;;;;;4968920;28;20190;-62
2023/09/26 09:10:04;;;;;;;26.83;16.80;;;13.80;99.90;;;;;;4965354;28;20178;-61
2023/09/26 09:12:30;;;;;;;28.30;16.63;;;14.00;99.90;;;;;;4969465;28;20479;-61
2023/09/26 09:14:55;;;;;;;22.93;15.50;;;14.10;99.90;;;;;;4964257;28;21138;-64
2023/09/26 09:17:21;;;;;;;25.07;15.13;;;14.30;99.90;;;;;;4961315;28;20189;-64
2023/09/26 09:19:53;;;;;;;30.03;16.10;;;14.40;99.90;;;;;;4960985;28;20189;-65
2023/09/26 09:22:21;;;;;;;20.73;14.57;;;14.60;99.90;;;;;;4966648;28;21013;-62
2023/09/26 09:24:55;;;;;;;22.03;14.30;;;14.70;99.90;;;;;;4960506;28;20430;-62
2023/09/26 09:27:31;;;;;;;21.40;14.43;;;14.90;99.90;;;;;;4967623;28;20480;-62
2023/09/26 09:30:14;;;;;;;23.00;14.67;;;15.10;99.90;;;;;;4966982;28;20433;-62
2023/09/26 09:32:41;;;;;;;23.23;14.20;;;15.30;99.90;;;;;;4964349;28;20976;-63
2023/09/26 09:35:13;;;;;;;23.90;14.03;;;15.50;99.90;;;;;;4968035;28;20468;-63
2023/09/26 09:37:41;;;;;;;22.80;14.40;;;15.60;99.90;;;;;;4966369;28;20500;-62
2023/09/26 09:40:08;;;;;;;17.37;12.20;;;15.80;99.90;;;;;;4961885;28;20430;-62
2023/09/26 09:42:34;;;;;;;19.90;12.60;;;16.00;99.90;;;;;;4968945;28;20495;-60
2023/09/26 09:45:00;;;;;;;18.23;12.60;;;16.20;99.90;;;;;;4960280;28;21058;-62
2023/09/26 09:47:30;;;;;;;19.73;11.90;;;16.50;99.90;;;;;;4960319;28;20452;-61
2023/09/26 09:49:59;;;;;;;17.07;11.10;;;16.60;99.90;;;;;;4966869;28;20190;-61
2023/09/26 09:52:30;;;;;;;23.63;12.17;;;16.70;99.90;;;;;;4966629;28;20433;-61
2023/09/26 09:54:57;;;;;;;17.87;10.10;;;16.90;99.90;;;;;;4965703;28;20445;-61
2023/09/26 09:57:26;;;;;;;14.57;10.13;;;17.10;99.90;;;;;;4963551;28;20438;-60
2023/09/26 09:59:53;;;;;;;14.03;10.03;;;17.30;99.90;;;;;;4964333;28;20425;-61
2023/09/26 10:02:21;;;;;;;13.13;9.47;;;17.50;99.90;;;;;;4966571;28;20469;-62
2023/09/26 10:04:48;;;;;;;14.67;9.13;;;17.60;99.90;;;;;;4961812;28;20496;-62
2023/09/26 10:07:15;;;;;;;12.03;6.83;;;17.70;99.90;;;;;;4965638;28;20936;-62
2023/09/26 10:09:42;;;;;;;9.53;6.90;;;17.70;99.90;;;;;;4970534;28;20516;-61
2023/09/26 10:12:10;;;;;;;11.70;7.70;;;17.80;99.90;;;;;;4968863;28;20484;-62
2023/09/26 10:14:36;;;;;;;8.80;6.50;;;18.00;99.90;;;;;;4966178;28;20488;-59
2023/09/26 10:17:04;;;;;;;7.53;5.50;;;18.00;95.00;;;;;;4965905;28;20477;-61
2023/09/26 10:19:31;;;;;;;9.97;5.67;;;18.00;94.90;;;;;;4969974;28;20604;-61
2023/09/26 10:22:16;;;;;;;7.50;4.20;;;18.10;96.60;;;;;;4966337;28;20425;-61
2023/09/26 10:24:53;;;;;;;6.63;5.67;;;18.20;95.90;;;;;;4963431;28;20426;-61
2023/09/26 10:27:31;;;;;;;8.27;5.37;;;18.30;91.10;;;;;;4965671;28;20981;-61
2023/09/26 10:29:57;;;;;;;6.80;5.03;;;18.40;91.30;;;;;;4963980;28;20515;-60
2023/09/26 10:32:44;;;;;;;7.23;5.00;;;18.50;93.50;;;;;;4962359;28;20450;-60
2023/09/26 10:35:15;;;;;;;12.30;4.77;;;18.60;92.90;;;;;;4956470;28;20472;-62
2023/09/26 10:37:45;;;;;;;5.20;4.70;;;18.70;85.00;;;;;;4969407;28;20439;-61
2023/09/26 10:40:14;;;;;;;9.63;4.70;;;18.90;83.00;;;;;;4963480;28;20421;-61
2023/09/26 10:42:43;;;;;;;8.67;4.80;;;18.90;78.50;;;;;;4967365;28;20425;-62
2023/09/26 10:45:10;;;;;;;23.57;5.27;;;19.00;79.30;;;;;;4965975;28;20876;-61
2023/09/26 10:47:38;;;;;;;4.90;3.80;;;19.20;79.30;;;;;;4968923;28;20449;-61
2023/09/26 10:50:06;;;;;;;7.27;5.10;;;19.30;80.00;;;;;;4958826;28;21952;-62
2023/09/26 10:52:33;;;;;;;4.33;3.20;;;19.50;79.30;;;;;;4959996;28;20441;-58
2023/09/26 10:54:58;;;;;;;10.50;3.40;;;19.60;74.30;;;;;;4966300;28;20499;-61
2023/09/26 10:57:25;;;;;;;6.87;5.10;;;19.80;76.10;;;;;;4968605;28;20425;-59
2023/09/26 10:59:51;;;;;;;4.87;3.87;;;20.00;72.00;;;;;;4962422;28;20178;-59
2023/09/26 11:02:17;;;;;;;6.47;3.60;;;20.10;72.30;;;;;;4964848;28;20425;-59
2023/09/26 11:04:43;;;;;;;5.03;3.30;;;20.30;66.80;;;;;;4968548;28;20178;-60
2023/09/26 11:07:09;;;;;;;5.20;3.23;;;20.30;66.30;;;;;;4964769;28;21570;-60
2023/09/26 11:09:44;;;;;;;7.93;2.97;;;20.40;64.60;;;;;;4968215;28;20425;-60
2023/09/26 11:12:12;;;;;;;3.40;2.87;;;20.50;67.30;;;;;;4964636;28;20440;-60
2023/09/26 11:14:38;;;;;;;3.27;2.63;;;20.60;62.50;;;;;;4963649;28;20424;-60
2023/09/26 11:17:07;;;;;;;9.10;3.37;;;20.70;62.30;;;;;;4964489;28;20470;-59
2023/09/26 11:19:34;;;;;;;6.43;3.57;;;20.80;61.10;;;;;;4967116;28;20575;-59
2023/09/26 11:22:00;;;;;;;3.73;2.70;;;20.90;59.50;;;;;;4969299;28;20422;-58
2023/09/26 11:24:31;;;;;;;4.20;2.70;;;21.10;61.40;;;;;;4967953;28;20445;-58
2023/09/26 11:26:59;;;;;;;4.13;2.70;;;21.20;60.20;;;;;;4963358;28;20678;-61
2023/09/26 11:29:25;;;;;;;3.70;2.70;;;21.50;60.60;;;;;;4961605;28;20444;-59
2023/09/26 11:31:52;;;;;;;3.93;2.93;;;21.60;57.90;;;;;;4959471;28;20433;-59
2023/09/26 11:34:19;;;;;;;3.80;3.00;;;21.70;58.20;;;;;;4959682;28;20446;-59
2023/09/26 11:36:44;;;;;;;3.13;2.80;;;21.90;58.90;;;;;;4963644;28;20469;-59
2023/09/26 11:39:28;;;;;;;3.97;2.70;;;22.10;57.70;;;;;;4962714;28;20436;-59
2023/09/26 11:42:06;;;;;;;3.07;2.50;;;22.30;57.40;;;;;;4963067;28;20177;-59
2023/09/26 11:44:32;;;;;;;3.67;2.53;;;22.50;56.60;;;;;;4962241;28;20865;-59
2023/09/26 11:46:58;;;;;;;4.00;2.30;;;22.60;56.10;;;;;;4957677;28;20563;-59
2023/09/26 11:49:25;;;;;;;2.63;2.20;;;22.70;56.10;;;;;;4960310;28;20203;-59
2023/09/26 11:51:52;;;;;;;2.67;2.43;;;22.80;57.20;;;;;;4962555;28;20441;-59
2023/09/26 11:54:17;;;;;;;5.90;3.03;;;23.10;56.30;;;;;;4955943;28;20496;-59
2023/09/26 11:56:44;;;;;;;4.20;3.10;;;23.20;56.40;;;;;;4957969;28;20454;-58
2023/09/26 11:59:14;;;;;;;9.90;2.73;;;23.40;55.20;;;;;;4961271;28;20649;-59
2023/09/26 12:01:42;;;;;;;3.33;2.87;;;23.40;53.30;;;;;;4964553;28;20528;-58
2023/09/26 12:04:12;;;;;;;3.60;2.67;;;23.40;54.10;;;;;;4957742;28;21022;-59
2023/09/26 12:06:40;;;;;;;4.53;2.43;;;23.40;53.60;;;;;;4959541;28;20493;-60
2023/09/26 12:09:09;;;;;;;2.80;2.50;;;23.60;54.30;;;;;;4962351;28;20957;-59
2023/09/26 12:11:35;;;;;;;2.93;2.27;;;23.60;53.00;;;;;;4961730;28;21021;-59
2023/09/26 12:14:01;;;;;;;7.83;2.70;;;23.70;53.30;;;;;;4961298;28;20503;-60
2023/09/26 12:16:29;;;;;;;5.33;2.90;;;23.90;53.70;;;;;;4959656;28;20464;-59
2023/09/26 12:18:55;;;;;;;9.33;2.57;;;24.00;52.80;;;;;;4958849;28;20186;-60
2023/09/26 12:21:20;;;;;;;3.20;2.80;;;24.00;51.70;;;;;;4963866;28;21553;-58
2023/09/26 12:23:46;;;;;;;6.67;3.23;;;24.10;52.10;;;;;;4958999;28;20680;-59
2023/09/26 12:26:12;;;;;;;2.93;2.50;;;24.20;51.00;;;;;;4961293;28;20644;-59
2023/09/26 12:28:38;;;;;;;4.50;2.93;;;24.20;51.60;;;;;;4960410;28;20174;-57
2023/09/26 12:31:04;;;;;;;5.17;2.67;;;24.20;51.90;;;;;;4959968;28;20181;-58
2023/09/26 12:33:29;;;;;;;4.97;3.00;;;24.40;52.80;;;;;;4963355;28;20184;-59
2023/09/26 12:35:56;;;;;;;10.10;2.90;;;24.50;52.60;;;;;;4959672;28;20205;-58
2023/09/26 12:38:21;;;;;;;3.97;2.83;;;24.70;52.20;;;;;;4963995;28;20174;-61
2023/09/26 12:40:47;;;;;;;5.17;2.53;;;24.80;52.10;;;;;;4957965;28;20421;-59
2023/09/26 12:43:13;;;;;;;3.43;2.33;;;24.90;52.20;;;;;;4962493;28;20280;-59